Time;durP1;ratioP1;P1;durP2;ratioP2;P2;SDS_P1;SDS_P2;PMS_P1;PMS_P2;Temp;Humidity;BMP_temperature;BMP_pressure;BME280_temperature;BME280_humidity;BME280_pressure;Samples;Min_cycle;Max_cycle;Signal;HPM_P1;HPM_P2
2023/10/04 00:00:59;;;;;;;0.20;0.20;;;;;;;16.79;60.11;100099.19;5307098;26;20056;-93
2023/10/04 00:03:27;;;;;;;0.00;0.00;;;;;;;16.82;60.10;100101.69;5289427;26;20017;-94
2023/10/04 00:05:54;;;;;;;0.73;0.73;;;;;;;16.94;60.12;100092.28;5289194;26;20127;-93
2023/10/04 00:08:19;;;;;;;0.45;0.45;;;;;;;16.77;60.11;100095.78;5308991;26;20429;-96
2023/10/04 00:10:49;;;;;;;0.60;0.60;;;;;;;16.82;60.11;100080.66;5309069;26;20055;-96
2023/10/04 00:13:15;;;;;;;;;;;;;;;16.80;60.10;100093.03;5291907;26;20641;-96
2023/10/04 00:15:40;;;;;;;0.08;0.05;;;;;;;16.98;60.12;100088.56;5308841;26;19977;-96
2023/10/04 00:18:10;;;;;;;0.03;0.03;;;;;;;16.84;60.10;100091.94;5308812;26;20204;-94
2023/10/04 00:20:35;;;;;;;0.57;0.47;;;;;;;16.95;60.12;100098.41;5290887;26;20056;-94
2023/10/04 00:23:05;;;;;;;0.52;0.30;;;;;;;16.92;60.11;100088.03;5308419;26;20048;-95
2023/10/04 00:25:33;;;;;;;;;;;;;;;17.03;60.12;100101.47;5309724;26;20059;-95
2023/10/04 00:27:59;;;;;;;0.55;0.55;;;;;;;17.03;60.12;100101.47;5308793;26;20438;-95
2023/10/04 00:30:29;;;;;;;0.70;0.68;;;;;;;16.94;60.12;100109.84;5325821;26;20070;-94
2023/10/04 00:32:58;;;;;;;1.15;0.80;;;;;;;16.97;60.12;100104.44;5308562;26;20048;-95
2023/10/04 00:35:25;;;;;;;0.10;0.10;;;;;;;16.98;60.11;100103.50;5290410;26;20060;-96
2023/10/04 00:38:00;;;;;;;0.45;0.45;;;;;;;16.86;60.11;100115.53;5314359;26;20112;-95
2023/10/04 00:40:30;;;;;;;0.20;0.20;;;;;;;16.78;60.11;100118.53;5333312;26;20022;-95
2023/10/04 00:42:59;;;;;;;0.20;0.10;;;;;;;16.74;60.10;100121.41;5310270;26;20079;-95
2023/10/04 00:45:25;;;;;;;0.50;0.47;;;;;;;16.71;60.10;100121.56;5316242;26;20064;-95
2023/10/04 00:47:56;;;;;;;0.73;0.73;;;;;;;16.63;60.10;100123.69;5317323;26;20043;-96
2023/10/04 00:50:26;;;;;;;7.12;0.80;;;;;;;16.63;60.10;100121.94;5331196;26;20096;-95
2023/10/04 00:53:14;;;;;;;0.20;0.20;;;;;;;16.75;60.10;100131.84;5291511;26;20636;-95
2023/10/04 00:55:42;;;;;;;1.85;1.40;;;;;;;16.77;60.11;100137.00;5327426;26;20052;-96
2023/10/04 00:58:08;;;;;;;4.20;0.32;;;;;;;16.69;60.09;100140.03;5309446;26;20048;-95
2023/10/04 01:00:36;;;;;;;4.37;0.85;;;;;;;16.67;60.10;100134.00;5308788;26;20016;-96
2023/10/04 01:03:02;;;;;;;0.50;0.50;;;;;;;16.71;60.10;100125.03;5309782;26;20024;-96
2023/10/04 01:05:28;;;;;;;0.55;0.47;;;;;;;16.78;60.11;100131.66;5309188;26;20024;-95
2023/10/04 01:07:54;;;;;;;1.00;0.98;;;;;;;16.62;60.10;100127.25;5309585;26;20064;-96
2023/10/04 01:10:30;;;;;;;1.85;0.82;;;;;;;16.67;60.09;100120.03;5309142;26;20299;-96
2023/10/04 01:12:55;;;;;;;0.80;0.80;;;;;;;16.55;60.10;100118.81;5310587;26;20027;-96
2023/10/04 01:17:56;;;;;;;1.02;1.02;;;;;;;16.46;60.08;100122.78;5312042;26;20059;-95
2023/10/04 01:20:40;;;;;;;0.40;0.40;;;;;;;16.40;60.09;100120.47;5309424;26;20467;-96
2023/10/04 01:23:09;;;;;;;0.62;0.40;;;;;;;16.44;60.08;100129.03;5309685;26;20554;-96
2023/10/04 01:25:36;;;;;;;0.10;0.10;;;;;;;16.53;60.09;100126.78;5295206;26;20060;-96
2023/10/04 01:28:12;;;;;;;0.43;0.30;;;;;;;16.56;60.09;100126.66;5317516;26;20060;-96
2023/10/04 01:30:41;;;;;;;1.45;0.30;;;;;;;16.61;60.08;100131.66;5330836;26;20389;-96
2023/10/04 01:33:15;;;;;;;0.30;0.30;;;;;;;16.64;60.10;100134.12;5311041;26;20048;-95
2023/10/04 01:35:41;;;;;;;2.22;1.30;;;;;;;16.54;60.08;100139.00;5309438;26;20114;-95
2023/10/04 01:38:06;;;;;;;1.48;0.65;;;;;;;16.50;60.08;100139.22;5308420;26;20066;-95
2023/10/04 01:40:34;;;;;;;0.00;0.00;;;;;;;16.52;60.09;100137.38;5310507;26;20088;-94
2023/10/04 01:42:59;;;;;;;0.00;0.00;;;;;;;16.59;60.09;100149.28;5300078;27;20124;-96
2023/10/04 01:45:25;;;;;;;0.90;0.57;;;;;;;16.68;60.09;100145.37;5289752;26;20111;-96
2023/10/04 01:47:51;;;;;;;0.25;0.25;;;;;;;16.81;60.10;100149.09;5308959;26;20097;-96
2023/10/04 01:50:20;;;;;;;0.10;0.00;;;;;;;16.96;60.11;100147.44;5308465;26;20060;-95
2023/10/04 01:52:50;;;;;;;1.55;0.57;;;;;;;16.95;60.11;100143.94;5327016;26;20227;-96
2023/10/04 01:55:17;;;;;;;0.10;0.10;;;;;;;17.19;60.12;100152.34;5309773;26;20682;-96
2023/10/04 01:57:44;;;;;;;0.17;0.17;;;;;;;17.44;60.13;100147.47;5309170;26;20694;-95
2023/10/04 02:03:53;;;;;;;0.45;0.45;;;;;;;17.53;60.14;100159.31;5341618;26;20035;-96
2023/10/04 02:06:24;;;;;;;0.20;0.20;;;;;;;17.72;60.15;100157.38;5332622;26;20700;-96
2023/10/04 02:08:52;;;;;;;0.00;0.00;;;;;;;17.86;60.16;100164.53;5331241;26;20024;-95
2023/10/04 02:11:21;;;;;;;2.25;0.95;;;;;;;17.89;60.16;100166.97;5313300;26;20028;-94
2023/10/04 02:13:47;;;;;;;0.17;0.17;;;;;;;18.02;60.17;100160.13;5318090;26;20025;-96
2023/10/04 02:16:18;;;;;;;0.57;0.45;;;;;;;18.13;60.17;100159.50;5317314;26;20025;-96
2023/10/04 02:18:49;;;;;;;0.08;0.08;;;;;;;18.39;60.20;100163.28;5335255;26;20052;-95
2023/10/04 02:21:17;;;;;;;0.20;0.20;;;;;;;18.64;60.21;100160.94;5316869;26;20025;-95
2023/10/04 02:23:53;;;;;;;4.18;1.00;;;;;;;18.78;60.21;100154.88;5295656;26;20571;-96
2023/10/04 02:26:22;;;;;;;0.20;0.20;;;;;;;19.08;60.23;100161.88;5327156;26;20079;-95
2023/10/04 02:28:51;;;;;;;0.40;0.30;;;;;;;19.21;60.23;100168.12;5328638;26;20068;-94
2023/10/04 02:31:22;;;;;;;0.10;0.10;;;;;;;19.46;60.25;100160.38;5313142;26;20025;-95
2023/10/04 02:33:52;;;;;;;0.47;0.47;;;;;;;19.60;60.25;100165.66;5293773;26;20038;-95
2023/10/04 02:36:17;;;;;;;0.45;0.45;;;;;;;19.63;60.25;100167.25;5327537;26;20071;-96
2023/10/04 02:38:44;;;;;;;0.55;0.55;;;;;;;19.66;60.25;100187.38;5308837;26;20112;-95
2023/10/04 02:41:10;;;;;;;0.00;0.00;;;;;;;19.80;60.26;100200.56;5321379;26;20065;-94
2023/10/04 02:43:40;;;;;;;0.60;0.32;;;;;;;19.79;60.26;100189.13;5306758;26;20414;-95
2023/10/04 02:46:05;;;;;;;0.65;0.65;;;;;;;19.76;60.25;100196.41;5303211;26;20057;-95
2023/10/04 02:48:32;;;;;;;0.30;0.28;;;;;;;19.58;60.25;100201.03;5305074;27;20074;-94
2023/10/04 02:50:57;;;;;;;0.10;0.10;;;;;;;19.65;60.25;100209.44;5304517;27;20456;-94
2023/10/04 02:53:25;;;;;;;0.00;0.00;;;;;;;19.72;60.26;100214.25;5304881;27;20116;-94
2023/10/04 02:55:54;;;;;;;7.65;0.65;;;;;;;19.72;60.26;100222.16;5305218;27;20119;-93
2023/10/04 02:58:23;;;;;;;0.15;0.15;;;;;;;19.90;60.26;100221.03;5305668;26;20064;-93
2023/10/04 03:00:54;;;;;;;0.47;0.47;;;;;;;19.70;60.26;100218.78;5305975;26;20067;-94
2023/10/04 03:03:22;;;;;;;0.00;0.00;;;;;;;19.72;60.26;100223.97;5306226;26;20045;-94
2023/10/04 03:05:49;;;;;;;0.05;0.03;;;;;;;19.71;60.26;100230.19;5305755;26;20056;-94
2023/10/04 03:08:16;;;;;;;0.00;0.00;;;;;;;19.80;60.27;100224.31;5287344;27;20065;-93
2023/10/04 03:10:49;;;;;;;0.00;0.00;;;;;;;19.83;60.26;100229.41;5306758;27;20796;-92
2023/10/04 03:13:22;;;;;;;0.37;0.35;;;;;;;19.97;60.27;100233.84;5288865;27;20021;-93
2023/10/04 03:15:50;;;;;;;0.00;0.00;;;;;;;20.04;60.27;100227.22;5307695;26;20024;-93
2023/10/04 03:18:18;;;;;;;0.32;0.32;;;;;;;20.08;60.27;100231.34;5305408;27;20057;-93
2023/10/04 03:23:35;;;;;;;0.03;0.03;;;;;;;19.98;60.27;100239.03;5310665;27;20648;-96
2023/10/04 03:26:03;;;;;;;0.00;0.00;;;;;;;19.86;60.27;100245.06;5305387;26;20057;-95
2023/10/04 03:28:33;;;;;;;0.00;0.00;;;;;;;19.81;60.26;100250.66;5291170;26;20420;-96
2023/10/04 03:31:02;;;;;;;0.00;0.00;;;;;;;19.90;60.26;100252.72;5329493;26;20059;-96
2023/10/04 03:33:43;;;;;;;0.25;0.25;;;;;;;19.76;60.25;100257.16;5313106;26;20021;-96
2023/10/04 03:36:18;;;;;;;0.00;0.00;;;;;;;19.73;60.26;100270.56;5330979;26;20077;-96
2023/10/04 03:38:49;;;;;;;0.15;0.15;;;;;;;19.72;60.26;100260.94;5328887;26;20079;-96
2023/10/04 03:41:16;;;;;;;0.43;0.43;;;;;;;19.45;60.24;100266.09;5305538;26;20460;-96
2023/10/04 03:43:47;;;;;;;0.10;0.10;;;;;;;19.71;60.26;100275.09;5306531;27;20025;-96
2023/10/04 03:46:19;;;;;;;0.10;0.10;;;;;;;19.86;60.27;100274.13;5280830;26;20056;-96
2023/10/04 03:48:48;;;;;;;0.15;0.10;;;;;;;19.69;60.25;100269.06;5329315;26;20057;-95
2023/10/04 03:51:15;;;;;;;0.70;0.40;;;;;;;19.65;60.25;100273.69;5311931;26;20057;-96
2023/10/04 03:53:43;;;;;;;0.00;0.00;;;;;;;19.60;60.25;100288.94;5308513;27;20017;-96
2023/10/04 03:56:10;;;;;;;0.20;0.20;;;;;;;19.61;60.24;100288.00;5288579;26;20064;-96
2023/10/04 03:58:36;;;;;;;0.00;0.00;;;;;;;19.59;60.25;100285.44;5308613;26;20056;-95
2023/10/04 04:01:03;;;;;;;0.00;0.00;;;;;;;19.64;60.25;100293.12;5309366;26;20116;-95
2023/10/04 04:03:30;;;;;;;0.03;0.03;;;;;;;19.67;60.25;100300.00;5312750;26;20020;-95
2023/10/04 04:05:55;;;;;;;0.55;0.55;;;;;;;19.55;60.25;100312.13;5309272;26;20105;-96
2023/10/04 04:08:21;;;;;;;0.00;0.00;;;;;;;19.78;60.27;100313.38;5308983;26;20057;-96
2023/10/04 04:10:47;;;;;;;0.00;0.00;;;;;;;19.76;60.25;100320.56;5309233;26;20067;-96
2023/10/04 04:13:12;;;;;;;0.00;0.00;;;;;;;19.64;60.25;100338.00;5308207;26;20056;-96
2023/10/04 04:15:52;;;;;;;0.00;0.00;;;;;;;19.58;60.25;100330.44;5311117;26;20058;-96
2023/10/04 04:18:24;;;;;;;0.05;0.03;;;;;;;19.48;60.24;100322.19;5359788;26;20021;-95
2023/10/04 04:20:54;;;;;;;0.00;0.00;;;;;;;19.39;60.24;100330.66;5336509;26;20104;-96
2023/10/04 04:23:22;;;;;;;0.43;0.37;;;;;;;19.37;60.23;100329.88;5328428;26;20037;-95
2023/10/04 04:25:49;;;;;;;0.00;0.00;;;;;;;19.32;60.24;100324.87;5311373;26;20202;-95
2023/10/04 04:28:18;;;;;;;0.20;0.20;;;;;;;19.28;60.23;100327.81;5291738;26;20060;-96
2023/10/04 04:30:46;;;;;;;1.10;0.52;;;;;;;19.41;60.24;100325.31;5311896;26;20107;-95
2023/10/04 04:33:17;;;;;;;0.00;0.00;;;;;;;19.38;60.25;100336.88;5329691;26;20025;-92
2023/10/04 04:38:16;;;;;;;0.35;0.35;;;;;;;19.29;60.23;100345.34;5313917;26;20036;-94
2023/10/04 04:40:49;;;;;;;0.40;0.30;;;;;;;19.13;60.22;100348.00;5312547;26;20053;-95
2023/10/04 04:45:53;;;;;;;0.00;0.00;;;;;;;19.25;60.23;100368.41;5325512;26;20147;-95
2023/10/04 04:48:23;;;;;;;0.45;0.45;;;;;;;19.19;60.23;100379.34;5309755;26;20110;-96
2023/10/04 04:50:49;;;;;;;0.03;0.03;;;;;;;19.27;60.24;100376.25;5327130;26;20031;-96
2023/10/04 04:53:18;;;;;;;0.00;0.00;;;;;;;19.41;60.24;100363.13;5290042;26;20066;-96
2023/10/04 04:55:43;;;;;;;0.00;0.00;;;;;;;19.53;60.24;100375.59;5308985;26;20064;-96
2023/10/04 04:58:14;;;;;;;0.00;0.00;;;;;;;19.42;60.24;100382.44;5308173;26;20051;-96
2023/10/04 05:00:44;;;;;;;0.00;0.00;;;;;;;19.42;60.24;100387.72;5327142;26;20770;-96
2023/10/04 05:03:12;;;;;;;0.00;0.00;;;;;;;19.36;60.23;100391.53;5309459;26;20087;-96
2023/10/04 05:05:41;;;;;;;0.00;0.00;;;;;;;19.39;60.24;100403.72;5309009;26;20117;-95
2023/10/04 05:08:10;;;;;;;0.17;0.17;;;;;;;19.25;60.24;100386.06;5289886;26;20549;-95
2023/10/04 05:10:38;;;;;;;0.00;0.00;;;;;;;19.12;60.22;100393.81;5290736;26;20064;-95
2023/10/04 05:13:07;;;;;;;0.00;0.00;;;;;;;19.02;60.22;100408.47;5308202;26;20043;-95
2023/10/04 05:15:35;;;;;;;0.32;0.32;;;;;;;18.89;60.21;100410.94;5308074;26;20083;-96
2023/10/04 05:18:15;;;;;;;0.00;0.00;;;;;;;18.95;60.22;100409.75;5308304;26;20068;-95
2023/10/04 05:20:52;;;;;;;0.00;0.00;;;;;;;18.97;60.21;100426.34;5327545;26;20052;-95
2023/10/04 05:23:18;;;;;;;0.57;0.28;;;;;;;18.92;60.22;100405.47;5310907;26;20048;-95
2023/10/04 05:25:44;;;;;;;0.00;0.00;;;;;;;19.04;60.22;100411.88;5291285;26;20075;-96
2023/10/04 05:28:12;;;;;;;0.20;0.15;;;;;;;19.05;60.23;100418.84;5307728;26;20079;-96
2023/10/04 05:30:39;;;;;;;0.93;0.22;;;;;;;19.03;60.23;100407.53;5309127;26;20053;-95
2023/10/04 05:33:08;;;;;;;0.00;0.00;;;;;;;18.88;60.22;100429.47;5289494;26;20098;-94
2023/10/04 05:35:35;;;;;;;0.00;0.00;;;;;;;18.90;60.22;100422.34;5312734;26;20109;-96
2023/10/04 05:38:04;;;;;;;1.20;1.02;;;;;;;18.84;60.21;100449.06;5307988;26;20075;-92
2023/10/04 05:40:38;;;;;;;0.52;0.52;;;;;;;18.82;60.21;100451.78;5308502;26;20084;-93
2023/10/04 05:43:03;;;;;;;0.45;0.40;;;;;;;18.72;60.21;100457.66;5310040;26;20049;-94
2023/10/04 05:45:29;;;;;;;0.00;0.00;;;;;;;18.76;60.21;100464.47;5309059;26;20337;-95
2023/10/04 05:47:55;;;;;;;0.17;0.17;;;;;;;18.77;60.22;100472.28;5308819;26;20064;-94
2023/10/04 05:50:21;;;;;;;0.10;0.10;;;;;;;18.51;60.19;100480.72;5308973;26;20048;-95
2023/10/04 05:52:50;;;;;;;0.00;0.00;;;;;;;18.57;60.20;100483.03;5308815;26;20077;-95
2023/10/04 05:55:21;;;;;;;0.15;0.15;;;;;;;18.59;60.20;100487.28;5308836;26;20549;-94
2023/10/04 05:57:47;;;;;;;0.00;0.00;;;;;;;18.59;60.20;100489.91;5308462;26;20125;-95
2023/10/04 06:00:25;;;;;;;1.00;0.60;;;;;;;18.51;60.19;100494.75;5308095;26;20068;-96
2023/10/04 06:03:01;;;;;;;0.35;0.35;;;;;;;18.47;60.20;100480.03;5311860;26;20072;-95
2023/10/04 06:05:31;;;;;;;0.00;0.00;;;;;;;18.58;60.20;100495.28;5327052;26;20021;-93
2023/10/04 06:07:57;;;;;;;0.00;0.00;;;;;;;18.58;60.20;100490.84;5328229;26;20186;-96
2023/10/04 06:10:25;;;;;;;0.00;0.00;;;;;;;18.38;60.20;100505.06;5291366;26;20119;-93
2023/10/04 06:12:55;;;;;;;0.00;0.00;;;;;;;18.47;60.19;100519.59;5311658;26;20054;-93
2023/10/04 06:15:21;;;;;;;;;;;;;;;18.38;60.18;100514.78;5309837;26;20060;-93
2023/10/04 06:17:50;;;;;;;0.00;0.00;;;;;;;18.51;60.20;100528.19;5309684;26;20065;-96
2023/10/04 06:20:23;;;;;;;0.00;0.00;;;;;;;18.55;60.20;100537.63;5310850;26;20071;-96
2023/10/04 06:23:00;;;;;;;0.00;0.00;;;;;;;18.60;60.20;100551.41;5311377;26;20021;-94
2023/10/04 06:25:26;;;;;;;0.13;0.13;;;;;;;18.50;60.20;100563.38;5310466;26;20048;-95
2023/10/04 06:27:56;;;;;;;0.00;0.00;;;;;;;18.51;60.20;100563.31;5308939;26;20068;-94
2023/10/04 06:30:27;;;;;;;0.00;0.00;;;;;;;18.50;60.20;100564.25;5309446;26;20363;-96
2023/10/04 06:32:56;;;;;;;0.20;0.20;;;;;;;18.54;60.19;100562.28;5309120;26;20150;-95
2023/10/04 06:35:24;;;;;;;0.00;0.00;;;;;;;18.42;60.19;100569.03;5308566;26;20075;-94
2023/10/04 06:37:57;;;;;;;3.50;0.43;;;;;;;18.35;60.18;100570.28;5311992;26;20032;-94
2023/10/04 06:40:24;;;;;;;0.00;0.00;;;;;;;18.41;60.19;100572.59;5328033;26;20089;-95
2023/10/04 06:42:50;;;;;;;0.08;0.08;;;;;;;18.52;60.19;100575.56;5308522;26;20405;-95
2023/10/04 06:45:16;;;;;;;0.90;0.52;;;;;;;18.56;60.20;100579.72;5308003;26;20436;-95
2023/10/04 06:47:45;;;;;;;0.45;0.32;;;;;;;18.64;60.21;100592.53;5308488;26;20068;-95
2023/10/04 06:50:13;;;;;;;0.70;0.70;;;;;;;18.55;60.20;100591.22;5291062;26;20769;-95
2023/10/04 06:52:41;;;;;;;0.00;0.00;;;;;;;18.69;60.21;100588.75;5345349;26;20705;-96
2023/10/04 06:55:08;;;;;;;0.00;0.00;;;;;;;18.65;60.20;100591.59;5309020;26;20120;-95
2023/10/04 06:57:34;;;;;;;0.03;0.03;;;;;;;18.68;60.20;100587.03;5327115;26;20064;-93
2023/10/04 07:00:00;;;;;;;0.00;0.00;;;;;;;18.65;60.20;100579.28;5326382;26;20075;-95
2023/10/04 07:02:26;;;;;;;0.00;0.00;;;;;;;18.67;60.20;100572.13;5308073;26;20443;-95
2023/10/04 07:04:52;;;;;;;0.00;0.00;;;;;;;18.59;60.20;100576.94;5309614;26;20039;-96
2023/10/04 07:07:18;;;;;;;0.20;0.20;;;;;;;18.41;60.19;100575.22;5291605;26;20064;-95
2023/10/04 07:09:43;;;;;;;0.00;0.00;;;;;;;18.54;60.20;100584.22;5308851;26;20108;-94
2023/10/04 07:12:09;;;;;;;0.00;0.00;;;;;;;18.60;60.20;100599.72;5290012;26;20049;-96
2023/10/04 07:14:34;;;;;;;0.00;0.00;;;;;;;18.62;60.21;100583.81;5308903;26;20064;-96
2023/10/04 07:17:00;;;;;;;0.00;0.00;;;;;;;18.69;60.20;100603.69;5290563;26;20067;-96
2023/10/04 07:19:28;;;;;;;0.15;0.15;;;;;;;18.51;60.20;100602.00;5326296;26;20111;-95
2023/10/04 07:21:55;;;;;;;1.52;0.62;;;;;;;18.68;60.20;100594.94;5290441;26;20064;-96
2023/10/04 07:24:20;;;;;;;0.03;0.03;;;;;;;18.64;60.21;100585.47;5307890;26;20123;-96
2023/10/04 07:26:46;;;;;;;0.00;0.00;;;;;;;18.53;60.19;100584.31;5308011;26;20079;-96
2023/10/04 07:29:11;;;;;;;0.10;0.10;;;;;;;18.54;60.20;100594.78;5308032;26;20064;-95
2023/10/04 07:31:37;;;;;;;10.80;0.43;;;;;;;18.57;60.20;100577.94;5289936;26;20126;-95
2023/10/04 07:34:02;;;;;;;0.28;0.28;;;;;;;18.57;60.20;100584.06;5308030;26;20063;-96
2023/10/04 07:36:28;;;;;;;0.62;0.62;;;;;;;18.57;60.20;100584.06;5307618;26;20064;-95
2023/10/04 07:38:53;;;;;;;0.08;0.08;;;;;;;18.55;60.20;100617.56;5289498;26;20064;-95
2023/10/04 07:41:20;;;;;;;0.00;0.00;;;;;;;18.64;60.21;100634.72;5291806;26;20119;-94
2023/10/04 07:43:46;;;;;;;0.47;0.20;;;;;;;18.80;60.21;100651.47;5307802;26;20060;-96
2023/10/04 07:46:11;;;;;;;0.15;0.15;;;;;;;18.99;60.22;100646.97;5289468;26;20123;-95
2023/10/04 07:48:37;;;;;;;0.00;0.00;;;;;;;19.10;60.23;100645.53;5308066;26;20437;-95
2023/10/04 07:51:02;;;;;;;0.00;0.00;;;;;;;19.33;60.24;100631.97;5307880;26;20435;-94
2023/10/04 07:53:28;;;;;;;0.00;0.00;;;;;;;19.23;60.24;100618.41;5307632;26;20079;-94
2023/10/04 07:55:53;;;;;;;0.03;0.03;;;;;;;19.17;60.23;100624.03;5307826;26;20070;-94
2023/10/04 07:58:19;;;;;;;0.00;0.00;;;;;;;19.36;60.24;100633.56;5307668;26;20082;-94
2023/10/04 08:00:44;;;;;;;0.00;0.00;;;;;;;19.39;60.25;100631.62;5308058;26;20052;-94
2023/10/04 08:03:10;;;;;;;0.05;0.05;;;;;;;19.07;60.24;100638.62;5307792;26;20060;-94
2023/10/04 08:05:36;;;;;;;0.00;0.00;;;;;;;18.88;60.22;100635.25;5307735;26;20150;-96
2023/10/04 08:08:02;;;;;;;0.00;0.00;;;;;;;18.92;60.21;100636.78;5307831;26;20068;-94
2023/10/04 08:10:30;;;;;;;0.20;0.13;;;;;;;18.82;60.21;100644.34;5289347;26;20080;-95
2023/10/04 08:12:59;;;;;;;0.22;0.17;;;;;;;18.73;60.21;100646.63;5325742;26;20451;-95
2023/10/04 08:15:25;;;;;;;0.00;0.00;;;;;;;18.73;60.21;100655.38;5308572;26;20117;-95
2023/10/04 08:17:51;;;;;;;0.00;0.00;;;;;;;18.82;60.21;100656.69;5289458;26;20425;-94
2023/10/04 08:20:17;;;;;;;0.65;0.52;;;;;;;18.84;60.21;100658.31;5307648;26;20083;-95
2023/10/04 08:22:43;;;;;;;0.00;0.00;;;;;;;18.81;60.21;100652.34;5307607;26;20072;-96
2023/10/04 08:25:13;;;;;;;1.10;0.15;;;;;;;18.72;60.21;100644.91;5307624;26;20432;-95
2023/10/04 08:27:39;;;;;;;0.00;0.00;;;;;;;18.54;60.20;100658.06;5307838;26;20082;-94
2023/10/04 08:30:08;;;;;;;0.00;0.00;;;;;;;18.79;60.21;100651.56;5308018;26;20060;-96
2023/10/04 08:32:33;;;;;;;0.00;0.00;;;;;;;18.77;60.21;100661.34;5307625;26;20394;-96
2023/10/04 08:34:59;;;;;;;0.00;0.00;;;;;;;18.99;60.22;100669.84;5307711;26;20396;-96
2023/10/04 08:37:26;;;;;;;0.30;0.30;;;;;;;19.14;60.23;100662.91;5307436;26;20063;-95
2023/10/04 08:39:52;;;;;;;0.00;0.00;;;;;;;19.29;60.24;100662.94;5307999;26;20082;-96
2023/10/04 08:42:18;;;;;;;0.08;0.08;;;;;;;19.49;60.25;100663.66;5311840;26;20119;-96
2023/10/04 08:44:44;;;;;;;0.00;0.00;;;;;;;19.40;60.25;100654.47;5307756;26;20068;-95
2023/10/04 08:47:10;;;;;;;0.00;0.00;;;;;;;19.23;60.24;100654.50;5289656;26;20059;-95
2023/10/04 08:49:43;;;;;;;0.43;0.32;;;;;;;19.21;60.23;100654.59;5307531;26;20154;-96
2023/10/04 08:52:20;;;;;;;0.45;0.45;;;;;;;19.03;60.23;100663.47;5308054;26;20670;-95
2023/10/04 08:54:50;;;;;;;0.40;0.35;;;;;;;18.95;60.22;100670.97;5308308;26;20079;-96
2023/10/04 08:57:20;;;;;;;0.00;0.00;;;;;;;18.90;60.22;100667.69;5307859;26;20056;-96
2023/10/04 08:59:45;;;;;;;0.00;0.00;;;;;;;18.95;60.23;100679.72;5326540;26;20065;-96
2023/10/04 09:02:11;;;;;;;0.57;0.35;;;;;;;19.06;60.22;100687.06;5307824;26;20068;-96
2023/10/04 09:04:36;;;;;;;1.67;0.95;;;;;;;19.17;60.23;100683.88;5307448;26;20075;-95
2023/10/04 09:07:02;;;;;;;0.08;0.00;;;;;;;19.28;60.24;100676.22;5307643;26;20072;-96
2023/10/04 09:09:30;;;;;;;0.10;0.10;;;;;;;19.22;60.23;100673.94;5325848;26;20056;-95
2023/10/04 09:11:55;;;;;;;0.35;0.28;;;;;;;19.30;60.24;100667.28;5307687;26;20697;-96
2023/10/04 09:14:25;;;;;;;2.17;1.55;;;;;;;19.39;60.25;100675.66;5307471;26;20088;-96
2023/10/04 09:17:06;;;;;;;0.00;0.00;;;;;;;19.62;60.25;100673.50;5290146;26;20060;-96
2023/10/04 09:19:32;;;;;;;0.25;0.25;;;;;;;19.55;60.25;100689.78;5304143;27;20057;-95
2023/10/04 09:22:00;;;;;;;19.15;0.85;;;;;;;19.62;60.25;100667.34;5280863;27;20106;-96
2023/10/04 09:24:25;;;;;;;0.32;0.32;;;;;;;19.88;60.27;100658.88;5287809;26;20143;-95
2023/10/04 09:26:52;;;;;;;0.57;0.57;;;;;;;20.28;60.28;100647.81;5304243;27;20407;-96
2023/10/04 09:29:30;;;;;;;0.15;0.05;;;;;;;20.48;60.30;100658.97;5304033;26;20043;-95
2023/10/04 09:31:56;;;;;;;0.28;0.28;;;;;;;20.94;60.33;100664.16;5307878;26;20084;-96
2023/10/04 09:34:25;;;;;;;0.00;0.00;;;;;;;21.05;60.33;100677.59;5305473;26;20068;-96
2023/10/04 09:36:53;;;;;;;0.00;0.00;;;;;;;21.34;60.35;100681.16;5286836;27;20796;-95
2023/10/04 09:39:24;;;;;;;0.00;0.00;;;;;;;21.56;60.36;100678.03;5278447;26;20170;-96
2023/10/04 09:41:51;;;;;;;0.00;0.00;;;;;;;21.49;60.36;100670.53;5326728;26;20079;-96
2023/10/04 09:44:23;;;;;;;0.08;0.08;;;;;;;21.68;60.36;100682.53;5309164;26;20064;-95
2023/10/04 09:46:54;;;;;;;0.00;0.00;;;;;;;21.71;60.37;100682.31;5286691;27;20102;-96
2023/10/04 09:49:22;;;;;;;0.08;0.08;;;;;;;21.93;60.37;100678.31;5288319;26;20052;-96
2023/10/04 09:51:48;;;;;;;0.00;0.00;;;;;;;22.00;60.38;100676.97;5309706;26;20041;-96
2023/10/04 09:54:16;;;;;;;0.00;0.00;;;;;;;22.42;60.41;100677.78;5307530;26;20080;-96
2023/10/04 09:56:47;;;;;;;0.10;0.10;;;;;;;22.46;60.40;100692.53;5310727;26;20074;-96
2023/10/04 09:59:16;;;;;;;0.20;0.20;;;;;;;22.34;60.40;100691.56;5306136;26;20067;-96
2023/10/04 10:01:44;;;;;;;0.00;0.00;;;;;;;22.29;60.40;100693.69;5290990;26;20029;-96
2023/10/04 10:04:16;;;;;;;0.10;0.10;;;;;;;22.40;60.40;100703.56;5307599;26;20068;-96
2023/10/04 10:06:52;;;;;;;0.10;0.10;;;;;;;22.05;60.38;100696.97;5305628;27;20122;-96
2023/10/04 10:09:18;;;;;;;0.00;0.00;;;;;;;22.13;60.39;100701.78;5308680;26;20670;-96
2023/10/04 10:11:46;;;;;;;0.00;0.00;;;;;;;22.09;60.39;100694.13;5309819;26;20085;-96
2023/10/04 10:14:14;;;;;;;0.00;0.00;;;;;;;21.99;60.38;100696.47;5309486;26;20078;-96
2023/10/04 10:16:41;;;;;;;0.30;0.30;;;;;;;21.81;60.37;100690.56;5307977;26;20070;-96
2023/10/04 10:19:07;;;;;;;0.08;0.08;;;;;;;22.04;60.39;100695.28;5290317;26;20676;-96
2023/10/04 10:22:05;;;;;;;0.00;0.00;;;;;;;21.94;60.37;100703.88;5308068;26;20064;-96
2023/10/04 10:24:31;;;;;;;0.00;0.00;;;;;;;22.19;60.39;100698.72;5299103;26;20110;-96
2023/10/04 10:27:03;;;;;;;0.00;0.00;;;;;;;22.30;60.39;100690.06;5299221;27;20064;-96
2023/10/04 10:29:29;;;;;;;0.68;0.68;;;;;;;22.27;60.40;100695.59;5289578;26;20117;-96
2023/10/04 10:31:55;;;;;;;0.25;0.25;;;;;;;21.86;60.38;100701.72;5308151;26;20064;-96
2023/10/04 10:34:20;;;;;;;0.15;0.15;;;;;;;21.91;60.38;100709.38;5309005;26;20064;-96
2023/10/04 10:36:47;;;;;;;0.00;0.00;;;;;;;22.00;60.38;100693.75;5289792;26;20071;-95
2023/10/04 10:39:19;;;;;;;0.00;0.00;;;;;;;21.89;60.38;100713.94;5307731;26;20397;-95
2023/10/04 10:41:51;;;;;;;0.37;0.20;;;;;;;22.00;60.38;100704.34;5308039;26;20489;-96
2023/10/04 10:44:20;;;;;;;0.10;0.10;;;;;;;22.03;60.39;100704.16;5345127;26;20028;-96
2023/10/04 10:47:06;;;;;;;0.00;0.00;;;;;;;21.92;60.37;100711.06;5309645;26;20061;-95
2023/10/04 10:49:41;;;;;;;0.98;0.32;;;;;;;22.19;60.40;100709.31;5345119;26;20049;-96
2023/10/04 10:52:09;;;;;;;0.00;0.00;;;;;;;21.93;60.38;100716.28;5308390;26;20068;-95
2023/10/04 10:54:36;;;;;;;0.00;0.00;;;;;;;21.98;60.38;100700.06;5308602;26;20063;-95
2023/10/04 10:57:02;;;;;;;0.32;0.32;;;;;;;21.95;60.38;100705.56;5308681;26;20432;-95
2023/10/04 10:59:29;;;;;;;0.00;0.00;;;;;;;21.89;60.38;100700.66;5289696;26;20064;-95
2023/10/04 11:01:54;;;;;;;1.00;0.55;;;;;;;21.82;60.38;100692.28;5308076;26;20079;-95
2023/10/04 11:04:20;;;;;;;0.00;0.00;;;;;;;21.72;60.37;100691.97;5308002;26;20060;-95
2023/10/04 11:06:45;;;;;;;0.10;0.10;;;;;;;21.54;60.36;100689.66;5289101;26;20125;-95
2023/10/04 11:09:12;;;;;;;0.03;0.03;;;;;;;21.60;60.37;100686.62;5307561;26;20067;-96
2023/10/04 11:11:37;;;;;;;0.52;0.52;;;;;;;21.82;60.38;100679.00;5308239;26;20068;-95
2023/10/04 11:14:05;;;;;;;0.10;0.10;;;;;;;21.84;60.38;100689.53;5289944;26;20455;-96
2023/10/04 11:16:33;;;;;;;1.55;0.43;;;;;;;21.94;60.39;100672.91;5308615;26;20068;-96
2023/10/04 11:19:00;;;;;;;0.00;0.00;;;;;;;21.78;60.38;100685.47;5289703;26;20130;-96
2023/10/04 11:21:29;;;;;;;0.00;0.00;;;;;;;21.88;60.38;100683.91;5289903;26;20466;-96
2023/10/04 11:23:55;;;;;;;0.30;0.30;;;;;;;22.01;60.38;100676.88;5308909;26;20708;-95
2023/10/04 11:26:21;;;;;;;1.45;0.55;;;;;;;21.84;60.38;100677.13;5289597;26;20124;-96
2023/10/04 11:28:49;;;;;;;0.00;0.00;;;;;;;21.94;60.39;100667.59;5307844;26;20138;-95
2023/10/04 11:31:15;;;;;;;0.00;0.00;;;;;;;22.05;60.39;100677.56;5326275;26;20135;-96
2023/10/04 11:34:08;;;;;;;0.00;0.00;;;;;;;21.81;60.38;100687.06;5307795;26;20063;-95
2023/10/04 11:36:35;;;;;;;0.08;0.08;;;;;;;21.99;60.39;100672.59;5322622;26;20057;-96
2023/10/04 11:39:00;;;;;;;0.00;0.00;;;;;;;21.96;60.39;100681.63;5307612;26;20098;-95
2023/10/04 11:41:29;;;;;;;0.22;0.20;;;;;;;21.97;60.39;100666.56;5304037;27;20072;-95
2023/10/04 11:44:02;;;;;;;0.20;0.17;;;;;;;22.06;60.39;100673.97;5269024;27;20039;-96
2023/10/04 11:46:28;;;;;;;0.00;0.00;;;;;;;22.23;60.39;100652.47;5286502;27;20032;-95